sensor_id;sensor_type;location;lat;lon;timestamp;P1;durP1;ratioP1;P2;durP2;ratioP2
18449;SDS011;9354;50.194;7.690;2023-05-14T00:00:33;6.60;;;3.43;;
18449;SDS011;9354;50.194;7.690;2023-05-14T00:03:01;6.37;;;4.40;;
18449;SDS011;9354;50.194;7.690;2023-05-14T00:05:29;5.20;;;3.73;;
18449;SDS011;9354;50.194;7.690;2023-05-14T00:07:57;7.57;;;4.07;;
18449;SDS011;9354;50.194;7.690;2023-05-14T00:10:25;5.00;;;3.90;;
18449;SDS011;9354;50.194;7.690;2023-05-14T00:12:52;8.57;;;3.70;;
18449;SDS011;9354;50.194;7.690;2023-05-14T00:15:20;5.27;;;3.73;;
18449;SDS011;9354;50.194;7.690;2023-05-14T00:17:47;7.93;;;4.67;;
18449;SDS011;9354;50.194;7.690;2023-05-14T00:20:15;9.03;;;4.50;;
18449;SDS011;9354;50.194;7.690;2023-05-14T00:22:43;11.50;;;4.87;;
18449;SDS011;9354;50.194;7.690;2023-05-14T00:25:11;6.63;;;4.70;;
18449;SDS011;9354;50.194;7.690;2023-05-14T00:27:38;11.33;;;4.40;;
18449;SDS011;9354;50.194;7.690;2023-05-14T00:30:06;6.47;;;3.87;;
18449;SDS011;9354;50.194;7.690;2023-05-14T00:32:34;6.70;;;4.53;;
18449;SDS011;9354;50.194;7.690;2023-05-14T00:35:01;9.00;;;4.20;;
18449;SDS011;9354;50.194;7.690;2023-05-14T00:37:29;11.50;;;5.27;;
18449;SDS011;9354;50.194;7.690;2023-05-14T00:39:57;9.60;;;4.23;;
18449;SDS011;9354;50.194;7.690;2023-05-14T00:42:25;10.03;;;3.50;;
18449;SDS011;9354;50.194;7.690;2023-05-14T00:44:52;6.30;;;3.53;;
18449;SDS011;9354;50.194;7.690;2023-05-14T00:47:20;6.77;;;4.00;;
18449;SDS011;9354;50.194;7.690;2023-05-14T00:49:48;7.63;;;5.27;;
18449;SDS011;9354;50.194;7.690;2023-05-14T00:52:15;7.33;;;4.77;;
18449;SDS011;9354;50.194;7.690;2023-05-14T00:54:43;9.07;;;5.23;;
18449;SDS011;9354;50.194;7.690;2023-05-14T00:57:13;11.00;;;5.90;;
18449;SDS011;9354;50.194;7.690;2023-05-14T00:59:41;13.70;;;6.10;;
18449;SDS011;9354;50.194;7.690;2023-05-14T01:02:08;21.27;;;6.73;;
18449;SDS011;9354;50.194;7.690;2023-05-14T01:04:36;16.50;;;5.93;;
18449;SDS011;9354;50.194;7.690;2023-05-14T01:07:07;46.17;;;5.07;;
18449;SDS011;9354;50.194;7.690;2023-05-14T01:09:43;26.43;;;6.00;;
18449;SDS011;9354;50.194;7.690;2023-05-14T01:12:18;26.63;;;5.70;;
18449;SDS011;9354;50.194;7.690;2023-05-14T01:15:01;21.47;;;5.77;;
18449;SDS011;9354;50.194;7.690;2023-05-14T01:17:32;7.37;;;4.43;;
18449;SDS011;9354;50.194;7.690;2023-05-14T01:20:01;13.13;;;6.17;;
18449;SDS011;9354;50.194;7.690;2023-05-14T01:22:30;17.23;;;5.30;;
18449;SDS011;9354;50.194;7.690;2023-05-14T01:24:58;17.63;;;4.27;;
18449;SDS011;9354;50.194;7.690;2023-05-14T01:27:27;24.17;;;4.67;;
18449;SDS011;9354;50.194;7.690;2023-05-14T01:30:02;14.97;;;4.57;;
18449;SDS011;9354;50.194;7.690;2023-05-14T01:32:35;38.97;;;5.97;;
18449;SDS011;9354;50.194;7.690;2023-05-14T01:35:05;50.77;;;5.10;;
18449;SDS011;9354;50.194;7.690;2023-05-14T01:37:35;43.50;;;5.67;;
18449;SDS011;9354;50.194;7.690;2023-05-14T01:40:03;55.43;;;4.93;;
18449;SDS011;9354;50.194;7.690;2023-05-14T01:42:32;72.27;;;7.33;;
18449;SDS011;9354;50.194;7.690;2023-05-14T01:45:00;55.90;;;5.60;;
18449;SDS011;9354;50.194;7.690;2023-05-14T01:47:27;53.13;;;5.60;;
18449;SDS011;9354;50.194;7.690;2023-05-14T01:49:55;39.77;;;6.70;;
18449;SDS011;9354;50.194;7.690;2023-05-14T01:52:22;44.67;;;5.60;;
18449;SDS011;9354;50.194;7.690;2023-05-14T01:54:51;27.40;;;4.50;;
18449;SDS011;9354;50.194;7.690;2023-05-14T01:57:19;10.30;;;5.00;;
18449;SDS011;9354;50.194;7.690;2023-05-14T01:59:47;25.70;;;4.17;;
18449;SDS011;9354;50.194;7.690;2023-05-14T02:02:14;13.27;;;4.53;;
18449;SDS011;9354;50.194;7.690;2023-05-14T02:04:42;15.70;;;4.57;;
18449;SDS011;9354;50.194;7.690;2023-05-14T02:07:09;16.93;;;5.47;;
18449;SDS011;9354;50.194;7.690;2023-05-14T02:09:37;5.37;;;3.73;;
18449;SDS011;9354;50.194;7.690;2023-05-14T02:12:06;5.30;;;3.40;;
18449;SDS011;9354;50.194;7.690;2023-05-14T02:14:35;7.17;;;4.20;;
18449;SDS011;9354;50.194;7.690;2023-05-14T02:17:03;11.70;;;3.63;;
18449;SDS011;9354;50.194;7.690;2023-05-14T02:19:31;15.23;;;4.27;;
18449;SDS011;9354;50.194;7.690;2023-05-14T02:21:58;50.33;;;5.03;;
18449;SDS011;9354;50.194;7.690;2023-05-14T02:24:26;50.37;;;6.07;;
18449;SDS011;9354;50.194;7.690;2023-05-14T02:26:53;50.07;;;4.87;;
18449;SDS011;9354;50.194;7.690;2023-05-14T02:29:22;33.13;;;5.10;;
18449;SDS011;9354;50.194;7.690;2023-05-14T02:31:49;17.50;;;4.47;;
18449;SDS011;9354;50.194;7.690;2023-05-14T02:34:16;57.83;;;7.93;;
18449;SDS011;9354;50.194;7.690;2023-05-14T02:36:44;31.43;;;5.23;;
18449;SDS011;9354;50.194;7.690;2023-05-14T02:39:11;32.90;;;4.50;;
18449;SDS011;9354;50.194;7.690;2023-05-14T02:41:38;40.77;;;4.67;;
18449;SDS011;9354;50.194;7.690;2023-05-14T02:44:06;72.83;;;5.40;;
18449;SDS011;9354;50.194;7.690;2023-05-14T02:46:35;113.00;;;7.60;;
18449;SDS011;9354;50.194;7.690;2023-05-14T02:49:02;82.03;;;6.20;;
18449;SDS011;9354;50.194;7.690;2023-05-14T02:51:29;71.83;;;6.17;;
18449;SDS011;9354;50.194;7.690;2023-05-14T02:53:57;32.17;;;7.20;;
18449;SDS011;9354;50.194;7.690;2023-05-14T02:56:24;59.70;;;7.80;;
18449;SDS011;9354;50.194;7.690;2023-05-14T02:58:52;70.97;;;7.13;;
18449;SDS011;9354;50.194;7.690;2023-05-14T03:01:19;57.13;;;6.17;;
18449;SDS011;9354;50.194;7.690;2023-05-14T03:03:48;50.07;;;5.93;;
18449;SDS011;9354;50.194;7.690;2023-05-14T03:06:15;74.13;;;6.40;;
18449;SDS011;9354;50.194;7.690;2023-05-14T03:08:42;77.23;;;7.53;;
18449;SDS011;9354;50.194;7.690;2023-05-14T03:11:10;124.40;;;8.10;;
18449;SDS011;9354;50.194;7.690;2023-05-14T03:13:37;96.83;;;10.57;;
18449;SDS011;9354;50.194;7.690;2023-05-14T03:16:05;109.20;;;10.30;;
18449;SDS011;9354;50.194;7.690;2023-05-14T03:18:32;83.07;;;10.33;;
18449;SDS011;9354;50.194;7.690;2023-05-14T03:21:02;88.43;;;8.83;;
18449;SDS011;9354;50.194;7.690;2023-05-14T03:23:30;172.83;;;9.20;;
18449;SDS011;9354;50.194;7.690;2023-05-14T03:25:59;60.13;;;6.73;;
18449;SDS011;9354;50.194;7.690;2023-05-14T03:28:26;68.50;;;6.37;;
18449;SDS011;9354;50.194;7.690;2023-05-14T03:30:54;70.77;;;6.03;;
18449;SDS011;9354;50.194;7.690;2023-05-14T03:33:21;88.33;;;8.70;;
18449;SDS011;9354;50.194;7.690;2023-05-14T03:35:49;103.97;;;7.03;;
18449;SDS011;9354;50.194;7.690;2023-05-14T03:38:18;90.37;;;8.03;;
18449;SDS011;9354;50.194;7.690;2023-05-14T03:40:45;62.03;;;7.53;;
18449;SDS011;9354;50.194;7.690;2023-05-14T03:43:12;139.20;;;7.93;;
18449;SDS011;9354;50.194;7.690;2023-05-14T03:45:40;42.57;;;7.70;;
18449;SDS011;9354;50.194;7.690;2023-05-14T03:48:08;66.67;;;8.63;;
18449;SDS011;9354;50.194;7.690;2023-05-14T03:50:35;46.60;;;7.80;;
18449;SDS011;9354;50.194;7.690;2023-05-14T03:53:02;48.77;;;6.40;;
18449;SDS011;9354;50.194;7.690;2023-05-14T03:55:31;69.07;;;7.50;;
18449;SDS011;9354;50.194;7.690;2023-05-14T03:57:59;97.90;;;9.67;;
18449;SDS011;9354;50.194;7.690;2023-05-14T04:00:27;95.83;;;8.57;;
18449;SDS011;9354;50.194;7.690;2023-05-14T04:02:54;104.30;;;8.77;;
18449;SDS011;9354;50.194;7.690;2023-05-14T04:05:22;120.00;;;10.10;;
18449;SDS011;9354;50.194;7.690;2023-05-14T04:07:49;105.93;;;8.40;;
18449;SDS011;9354;50.194;7.690;2023-05-14T04:10:17;109.67;;;8.70;;
18449;SDS011;9354;50.194;7.690;2023-05-14T04:12:46;136.97;;;9.20;;
18449;SDS011;9354;50.194;7.690;2023-05-14T04:15:13;109.90;;;6.97;;
18449;SDS011;9354;50.194;7.690;2023-05-14T04:17:40;89.27;;;7.37;;
18449;SDS011;9354;50.194;7.690;2023-05-14T04:20:08;61.67;;;8.47;;
18449;SDS011;9354;50.194;7.690;2023-05-14T04:22:36;56.40;;;8.23;;
18449;SDS011;9354;50.194;7.690;2023-05-14T04:25:03;56.97;;;6.27;;
18449;SDS011;9354;50.194;7.690;2023-05-14T04:27:31;29.40;;;7.13;;
18449;SDS011;9354;50.194;7.690;2023-05-14T04:30:00;38.00;;;7.87;;
18449;SDS011;9354;50.194;7.690;2023-05-14T04:32:28;25.57;;;6.90;;
18449;SDS011;9354;50.194;7.690;2023-05-14T04:34:55;17.10;;;6.77;;
18449;SDS011;9354;50.194;7.690;2023-05-14T04:37:23;21.90;;;7.03;;
18449;SDS011;9354;50.194;7.690;2023-05-14T04:39:50;43.03;;;7.93;;
18449;SDS011;9354;50.194;7.690;2023-05-14T04:42:17;89.37;;;8.70;;
18449;SDS011;9354;50.194;7.690;2023-05-14T04:44:45;56.90;;;7.80;;
18449;SDS011;9354;50.194;7.690;2023-05-14T04:47:15;136.63;;;10.10;;
18449;SDS011;9354;50.194;7.690;2023-05-14T04:49:43;105.67;;;8.73;;
18449;SDS011;9354;50.194;7.690;2023-05-14T04:52:10;159.47;;;7.73;;
18449;SDS011;9354;50.194;7.690;2023-05-14T04:54:37;80.77;;;8.93;;
18449;SDS011;9354;50.194;7.690;2023-05-14T04:57:05;93.47;;;7.80;;
18449;SDS011;9354;50.194;7.690;2023-05-14T04:59:33;56.37;;;6.73;;
18449;SDS011;9354;50.194;7.690;2023-05-14T05:02:00;58.43;;;6.27;;
18449;SDS011;9354;50.194;7.690;2023-05-14T05:04:29;69.67;;;6.70;;
18449;SDS011;9354;50.194;7.690;2023-05-14T05:06:56;30.70;;;5.33;;
18449;SDS011;9354;50.194;7.690;2023-05-14T05:09:24;26.43;;;5.37;;
18449;SDS011;9354;50.194;7.690;2023-05-14T05:11:51;49.57;;;5.67;;
18449;SDS011;9354;50.194;7.690;2023-05-14T05:14:18;22.20;;;5.37;;
18449;SDS011;9354;50.194;7.690;2023-05-14T05:16:46;42.47;;;5.47;;
18449;SDS011;9354;50.194;7.690;2023-05-14T05:19:13;43.20;;;5.70;;
18449;SDS011;9354;50.194;7.690;2023-05-14T05:21:42;78.70;;;7.00;;
18449;SDS011;9354;50.194;7.690;2023-05-14T05:24:09;53.47;;;8.00;;
18449;SDS011;9354;50.194;7.690;2023-05-14T05:26:37;51.53;;;6.07;;
18449;SDS011;9354;50.194;7.690;2023-05-14T05:29:05;64.80;;;6.33;;
18449;SDS011;9354;50.194;7.690;2023-05-14T05:31:33;67.23;;;6.23;;
18449;SDS011;9354;50.194;7.690;2023-05-14T05:34:01;57.30;;;6.80;;
18449;SDS011;9354;50.194;7.690;2023-05-14T05:36:28;44.70;;;7.23;;
18449;SDS011;9354;50.194;7.690;2023-05-14T05:38:57;55.17;;;7.50;;
18449;SDS011;9354;50.194;7.690;2023-05-14T05:41:25;106.43;;;7.17;;
18449;SDS011;9354;50.194;7.690;2023-05-14T05:43:52;65.07;;;8.80;;
18449;SDS011;9354;50.194;7.690;2023-05-14T05:46:20;117.57;;;7.50;;
18449;SDS011;9354;50.194;7.690;2023-05-14T05:48:47;44.20;;;7.23;;
18449;SDS011;9354;50.194;7.690;2023-05-14T05:51:15;64.73;;;7.87;;
18449;SDS011;9354;50.194;7.690;2023-05-14T05:53:42;90.00;;;8.63;;
18449;SDS011;9354;50.194;7.690;2023-05-14T05:56:11;89.73;;;7.13;;
18449;SDS011;9354;50.194;7.690;2023-05-14T05:58:38;50.57;;;7.73;;
18449;SDS011;9354;50.194;7.690;2023-05-14T06:01:06;44.17;;;8.53;;
18449;SDS011;9354;50.194;7.690;2023-05-14T06:03:33;79.23;;;8.23;;
18449;SDS011;9354;50.194;7.690;2023-05-14T06:06:01;28.37;;;7.77;;
18449;SDS011;9354;50.194;7.690;2023-05-14T06:08:28;24.80;;;8.10;;
18449;SDS011;9354;50.194;7.690;2023-05-14T06:10:56;16.50;;;7.77;;
18449;SDS011;9354;50.194;7.690;2023-05-14T06:13:25;15.30;;;8.23;;
18449;SDS011;9354;50.194;7.690;2023-05-14T06:15:52;18.63;;;9.23;;
18449;SDS011;9354;50.194;7.690;2023-05-14T06:18:19;17.77;;;8.50;;
18449;SDS011;9354;50.194;7.690;2023-05-14T06:20:47;20.67;;;8.67;;
18449;SDS011;9354;50.194;7.690;2023-05-14T06:23:14;13.57;;;8.20;;
18449;SDS011;9354;50.194;7.690;2023-05-14T06:25:41;15.43;;;7.73;;
18449;SDS011;9354;50.194;7.690;2023-05-14T06:28:09;14.13;;;7.77;;
18449;SDS011;9354;50.194;7.690;2023-05-14T06:30:38;14.00;;;8.17;;
18449;SDS011;9354;50.194;7.690;2023-05-14T06:33:05;13.20;;;8.07;;
18449;SDS011;9354;50.194;7.690;2023-05-14T06:35:32;13.03;;;8.37;;
18449;SDS011;9354;50.194;7.690;2023-05-14T06:38:00;12.70;;;7.60;;
18449;SDS011;9354;50.194;7.690;2023-05-14T06:40:28;13.07;;;7.73;;
18449;SDS011;9354;50.194;7.690;2023-05-14T06:42:55;11.83;;;7.90;;
18449;SDS011;9354;50.194;7.690;2023-05-14T06:45:22;12.03;;;7.57;;
18449;SDS011;9354;50.194;7.690;2023-05-14T06:47:51;13.80;;;7.50;;
18449;SDS011;9354;50.194;7.690;2023-05-14T06:50:18;13.40;;;7.93;;
18449;SDS011;9354;50.194;7.690;2023-05-14T06:52:46;13.10;;;8.50;;
18449;SDS011;9354;50.194;7.690;2023-05-14T06:55:13;14.10;;;8.73;;
18449;SDS011;9354;50.194;7.690;2023-05-14T06:57:41;13.50;;;8.50;;
18449;SDS011;9354;50.194;7.690;2023-05-14T07:00:09;14.67;;;8.27;;
18449;SDS011;9354;50.194;7.690;2023-05-14T07:02:38;16.13;;;8.67;;
18449;SDS011;9354;50.194;7.690;2023-05-14T07:05:07;15.43;;;9.07;;
18449;SDS011;9354;50.194;7.690;2023-05-14T07:07:36;18.23;;;9.13;;
18449;SDS011;9354;50.194;7.690;2023-05-14T07:10:03;13.00;;;7.90;;
18449;SDS011;9354;50.194;7.690;2023-05-14T07:12:32;13.60;;;8.20;;
18449;SDS011;9354;50.194;7.690;2023-05-14T07:15:00;13.10;;;8.47;;
18449;SDS011;9354;50.194;7.690;2023-05-14T07:17:27;11.50;;;7.90;;
18449;SDS011;9354;50.194;7.690;2023-05-14T07:19:54;12.97;;;7.27;;
18449;SDS011;9354;50.194;7.690;2023-05-14T07:22:23;10.60;;;7.10;;
18449;SDS011;9354;50.194;7.690;2023-05-14T07:24:50;11.30;;;7.77;;
18449;SDS011;9354;50.194;7.690;2023-05-14T07:27:18;12.73;;;7.17;;
18449;SDS011;9354;50.194;7.690;2023-05-14T07:29:45;12.40;;;7.17;;
18449;SDS011;9354;50.194;7.690;2023-05-14T07:32:13;11.03;;;7.13;;
18449;SDS011;9354;50.194;7.690;2023-05-14T07:34:40;11.87;;;7.23;;
18449;SDS011;9354;50.194;7.690;2023-05-14T07:37:07;9.80;;;6.80;;
18449;SDS011;9354;50.194;7.690;2023-05-14T07:39:36;12.50;;;7.57;;
18449;SDS011;9354;50.194;7.690;2023-05-14T07:42:06;9.83;;;7.03;;
18449;SDS011;9354;50.194;7.690;2023-05-14T07:44:33;11.33;;;6.47;;
18449;SDS011;9354;50.194;7.690;2023-05-14T07:47:01;9.80;;;6.10;;
18449;SDS011;9354;50.194;7.690;2023-05-14T07:49:28;9.07;;;5.57;;
18449;SDS011;9354;50.194;7.690;2023-05-14T07:51:56;7.33;;;5.27;;
18449;SDS011;9354;50.194;7.690;2023-05-14T07:54:23;8.23;;;5.93;;
18449;SDS011;9354;50.194;7.690;2023-05-14T07:56:52;11.67;;;6.70;;
18449;SDS011;9354;50.194;7.690;2023-05-14T07:59:19;9.80;;;5.93;;
18449;SDS011;9354;50.194;7.690;2023-05-14T08:01:47;7.17;;;5.40;;
18449;SDS011;9354;50.194;7.690;2023-05-14T08:04:14;8.90;;;5.27;;
18449;SDS011;9354;50.194;7.690;2023-05-14T08:06:42;7.27;;;5.07;;
18449;SDS011;9354;50.194;7.690;2023-05-14T08:09:09;7.33;;;5.17;;
18449;SDS011;9354;50.194;7.690;2023-05-14T08:11:37;6.80;;;5.27;;
18449;SDS011;9354;50.194;7.690;2023-05-14T08:14:06;8.93;;;6.17;;
18449;SDS011;9354;50.194;7.690;2023-05-14T08:16:33;9.03;;;5.80;;
18449;SDS011;9354;50.194;7.690;2023-05-14T08:19:00;10.67;;;5.73;;
18449;SDS011;9354;50.194;7.690;2023-05-14T08:21:28;8.07;;;5.70;;
18449;SDS011;9354;50.194;7.690;2023-05-14T08:23:56;8.93;;;4.37;;
18449;SDS011;9354;50.194;7.690;2023-05-14T08:26:23;6.83;;;4.60;;
18449;SDS011;9354;50.194;7.690;2023-05-14T08:28:51;7.47;;;4.30;;
18449;SDS011;9354;50.194;7.690;2023-05-14T08:31:20;5.60;;;4.27;;
18449;SDS011;9354;50.194;7.690;2023-05-14T08:33:47;5.23;;;3.40;;
18449;SDS011;9354;50.194;7.690;2023-05-14T08:36:15;6.50;;;3.70;;
18449;SDS011;9354;50.194;7.690;2023-05-14T08:38:42;4.53;;;3.60;;
18449;SDS011;9354;50.194;7.690;2023-05-14T08:41:10;7.23;;;5.00;;
18449;SDS011;9354;50.194;7.690;2023-05-14T08:43:43;9.67;;;3.93;;
18449;SDS011;9354;50.194;7.690;2023-05-14T08:46:20;4.63;;;3.37;;
18449;SDS011;9354;50.194;7.690;2023-05-14T08:48:50;4.90;;;3.93;;
18449;SDS011;9354;50.194;7.690;2023-05-14T08:51:22;5.70;;;3.57;;
18449;SDS011;9354;50.194;7.690;2023-05-14T08:53:50;5.50;;;3.47;;
18449;SDS011;9354;50.194;7.690;2023-05-14T08:56:17;4.93;;;3.67;;
18449;SDS011;9354;50.194;7.690;2023-05-14T08:58:46;6.87;;;3.80;;
18449;SDS011;9354;50.194;7.690;2023-05-14T09:01:13;8.07;;;3.73;;
18449;SDS011;9354;50.194;7.690;2023-05-14T09:03:42;9.37;;;3.47;;
18449;SDS011;9354;50.194;7.690;2023-05-14T09:06:09;4.23;;;3.17;;
18449;SDS011;9354;50.194;7.690;2023-05-14T09:08:38;4.67;;;3.07;;
18449;SDS011;9354;50.194;7.690;2023-05-14T09:11:06;4.20;;;3.40;;
18449;SDS011;9354;50.194;7.690;2023-05-14T09:13:35;5.77;;;3.13;;
18449;SDS011;9354;50.194;7.690;2023-05-14T09:16:05;4.07;;;3.07;;
18449;SDS011;9354;50.194;7.690;2023-05-14T09:18:34;6.80;;;3.90;;
18449;SDS011;9354;50.194;7.690;2023-05-14T09:21:03;4.27;;;2.93;;
18449;SDS011;9354;50.194;7.690;2023-05-14T09:23:31;3.53;;;2.57;;
18449;SDS011;9354;50.194;7.690;2023-05-14T09:26:02;4.43;;;2.87;;
18449;SDS011;9354;50.194;7.690;2023-05-14T09:28:31;4.97;;;2.80;;
18449;SDS011;9354;50.194;7.690;2023-05-14T09:30:58;5.23;;;2.83;;
18449;SDS011;9354;50.194;7.690;2023-05-14T09:33:26;5.20;;;2.93;;
18449;SDS011;9354;50.194;7.690;2023-05-14T09:35:54;4.80;;;3.20;;
18449;SDS011;9354;50.194;7.690;2023-05-14T09:38:28;5.50;;;3.10;;
18449;SDS011;9354;50.194;7.690;2023-05-14T09:40:56;3.93;;;2.80;;
18449;SDS011;9354;50.194;7.690;2023-05-14T09:43:23;4.70;;;2.90;;
18449;SDS011;9354;50.194;7.690;2023-05-14T09:45:51;5.97;;;3.67;;
18449;SDS011;9354;50.194;7.690;2023-05-14T09:48:18;4.20;;;3.10;;
18449;SDS011;9354;50.194;7.690;2023-05-14T09:50:46;3.67;;;2.60;;
18449;SDS011;9354;50.194;7.690;2023-05-14T09:53:14;4.70;;;3.13;;
18449;SDS011;9354;50.194;7.690;2023-05-14T09:55:43;3.10;;;2.30;;
18449;SDS011;9354;50.194;7.690;2023-05-14T09:58:11;3.33;;;2.60;;
18449;SDS011;9354;50.194;7.690;2023-05-14T10:00:41;4.00;;;2.70;;
18449;SDS011;9354;50.194;7.690;2023-05-14T10:03:10;3.37;;;2.43;;
18449;SDS011;9354;50.194;7.690;2023-05-14T10:05:40;5.20;;;2.77;;
18449;SDS011;9354;50.194;7.690;2023-05-14T10:08:08;4.50;;;2.53;;
18449;SDS011;9354;50.194;7.690;2023-05-14T10:10:39;4.30;;;2.20;;
18449;SDS011;9354;50.194;7.690;2023-05-14T10:13:10;5.10;;;2.60;;
18449;SDS011;9354;50.194;7.690;2023-05-14T10:15:41;3.40;;;2.50;;
18449;SDS011;9354;50.194;7.690;2023-05-14T10:18:14;3.83;;;2.30;;
18449;SDS011;9354;50.194;7.690;2023-05-14T10:20:45;3.10;;;2.43;;
18449;SDS011;9354;50.194;7.690;2023-05-14T10:23:17;4.63;;;2.40;;
18449;SDS011;9354;50.194;7.690;2023-05-14T10:25:45;3.10;;;2.30;;
18449;SDS011;9354;50.194;7.690;2023-05-14T10:28:14;3.37;;;2.30;;
18449;SDS011;9354;50.194;7.690;2023-05-14T10:30:42;2.43;;;1.90;;
18449;SDS011;9354;50.194;7.690;2023-05-14T10:33:11;5.73;;;2.53;;
18449;SDS011;9354;50.194;7.690;2023-05-14T10:38:33;2.27;;;1.97;;
18449;SDS011;9354;50.194;7.690;2023-05-14T10:41:02;2.93;;;1.90;;
18449;SDS011;9354;50.194;7.690;2023-05-14T10:43:34;3.03;;;1.80;;
18449;SDS011;9354;50.194;7.690;2023-05-14T10:46:03;4.17;;;2.00;;
18449;SDS011;9354;50.194;7.690;2023-05-14T10:48:31;2.23;;;1.63;;
18449;SDS011;9354;50.194;7.690;2023-05-14T10:50:59;2.93;;;2.10;;
18449;SDS011;9354;50.194;7.690;2023-05-14T10:53:31;2.80;;;2.07;;
18449;SDS011;9354;50.194;7.690;2023-05-14T10:56:03;3.20;;;1.83;;
18449;SDS011;9354;50.194;7.690;2023-05-14T10:58:35;3.87;;;2.23;;
18449;SDS011;9354;50.194;7.690;2023-05-14T11:01:04;3.23;;;1.83;;
18449;SDS011;9354;50.194;7.690;2023-05-14T11:03:38;4.27;;;2.30;;
18449;SDS011;9354;50.194;7.690;2023-05-14T11:06:07;3.17;;;2.03;;
18449;SDS011;9354;50.194;7.690;2023-05-14T11:08:35;2.83;;;1.70;;
18449;SDS011;9354;50.194;7.690;2023-05-14T11:11:04;2.50;;;2.10;;
18449;SDS011;9354;50.194;7.690;2023-05-14T11:13:31;3.47;;;2.10;;
18449;SDS011;9354;50.194;7.690;2023-05-14T11:16:00;3.93;;;2.33;;
18449;SDS011;9354;50.194;7.690;2023-05-14T11:18:28;3.33;;;2.53;;
18449;SDS011;9354;50.194;7.690;2023-05-14T11:20:58;3.27;;;2.20;;
18449;SDS011;9354;50.194;7.690;2023-05-14T11:23:25;3.13;;;2.20;;
18449;SDS011;9354;50.194;7.690;2023-05-14T11:25:54;3.57;;;2.07;;
18449;SDS011;9354;50.194;7.690;2023-05-14T11:28:22;4.30;;;2.20;;
18449;SDS011;9354;50.194;7.690;2023-05-14T11:30:52;2.83;;;2.00;;
18449;SDS011;9354;50.194;7.690;2023-05-14T11:33:21;2.73;;;2.10;;
18449;SDS011;9354;50.194;7.690;2023-05-14T11:35:48;2.73;;;2.30;;
18449;SDS011;9354;50.194;7.690;2023-05-14T11:38:16;2.90;;;2.00;;
18449;SDS011;9354;50.194;7.690;2023-05-14T11:40:50;5.30;;;2.47;;
18449;SDS011;9354;50.194;7.690;2023-05-14T11:43:18;4.23;;;1.97;;
18449;SDS011;9354;50.194;7.690;2023-05-14T11:45:48;3.93;;;2.30;;
18449;SDS011;9354;50.194;7.690;2023-05-14T11:48:16;3.20;;;2.27;;
18449;SDS011;9354;50.194;7.690;2023-05-14T11:50:45;3.10;;;1.97;;
18449;SDS011;9354;50.194;7.690;2023-05-14T11:53:17;6.13;;;2.13;;
18449;SDS011;9354;50.194;7.690;2023-05-14T11:55:45;2.17;;;1.90;;
18449;SDS011;9354;50.194;7.690;2023-05-14T11:58:13;2.23;;;1.80;;
18449;SDS011;9354;50.194;7.690;2023-05-14T12:00:43;2.33;;;1.67;;
18449;SDS011;9354;50.194;7.690;2023-05-14T12:03:10;3.93;;;1.90;;
18449;SDS011;9354;50.194;7.690;2023-05-14T12:05:37;1.90;;;1.57;;
18449;SDS011;9354;50.194;7.690;2023-05-14T12:08:19;8.03;;;1.70;;
18449;SDS011;9354;50.194;7.690;2023-05-14T12:10:47;3.47;;;1.70;;
18449;SDS011;9354;50.194;7.690;2023-05-14T12:13:14;4.03;;;1.70;;
18449;SDS011;9354;50.194;7.690;2023-05-14T12:15:45;2.93;;;1.40;;
18449;SDS011;9354;50.194;7.690;2023-05-14T12:18:15;2.07;;;1.63;;
18449;SDS011;9354;50.194;7.690;2023-05-14T12:20:46;2.70;;;1.53;;
18449;SDS011;9354;50.194;7.690;2023-05-14T12:23:15;2.03;;;1.47;;
18449;SDS011;9354;50.194;7.690;2023-05-14T12:25:50;3.07;;;1.90;;
18449;SDS011;9354;50.194;7.690;2023-05-14T12:28:18;3.73;;;1.90;;
18449;SDS011;9354;50.194;7.690;2023-05-14T12:30:45;2.60;;;1.57;;
18449;SDS011;9354;50.194;7.690;2023-05-14T12:33:13;2.07;;;1.43;;
18449;SDS011;9354;50.194;7.690;2023-05-14T12:35:40;2.87;;;1.63;;
18449;SDS011;9354;50.194;7.690;2023-05-14T12:38:08;2.93;;;1.80;;
18449;SDS011;9354;50.194;7.690;2023-05-14T12:40:35;5.20;;;1.97;;
18449;SDS011;9354;50.194;7.690;2023-05-14T12:43:04;8.33;;;2.20;;
18449;SDS011;9354;50.194;7.690;2023-05-14T12:45:32;2.53;;;2.20;;
18449;SDS011;9354;50.194;7.690;2023-05-14T12:47:59;3.77;;;2.10;;
18449;SDS011;9354;50.194;7.690;2023-05-14T12:50:26;2.70;;;2.20;;
18449;SDS011;9354;50.194;7.690;2023-05-14T12:52:54;2.97;;;1.90;;
18449;SDS011;9354;50.194;7.690;2023-05-14T12:55:22;3.40;;;1.97;;
18449;SDS011;9354;50.194;7.690;2023-05-14T12:57:49;3.23;;;2.10;;
18449;SDS011;9354;50.194;7.690;2023-05-14T13:00:18;2.33;;;1.93;;
18449;SDS011;9354;50.194;7.690;2023-05-14T13:02:46;3.07;;;2.00;;
18449;SDS011;9354;50.194;7.690;2023-05-14T13:05:13;3.03;;;1.80;;
18449;SDS011;9354;50.194;7.690;2023-05-14T13:07:41;4.10;;;1.93;;
18449;SDS011;9354;50.194;7.690;2023-05-14T13:10:08;2.87;;;1.90;;
18449;SDS011;9354;50.194;7.690;2023-05-14T13:12:36;4.83;;;2.10;;
18449;SDS011;9354;50.194;7.690;2023-05-14T13:15:04;2.43;;;1.80;;
18449;SDS011;9354;50.194;7.690;2023-05-14T13:17:34;2.63;;;2.10;;
18449;SDS011;9354;50.194;7.690;2023-05-14T13:20:01;1.70;;;1.60;;
18449;SDS011;9354;50.194;7.690;2023-05-14T13:22:30;4.40;;;1.67;;
18449;SDS011;9354;50.194;7.690;2023-05-14T13:24:58;6.50;;;1.40;;
18449;SDS011;9354;50.194;7.690;2023-05-14T13:27:25;2.90;;;1.50;;
18449;SDS011;9354;50.194;7.690;2023-05-14T13:29:52;1.77;;;1.50;;
18449;SDS011;9354;50.194;7.690;2023-05-14T13:32:20;1.80;;;1.30;;
18449;SDS011;9354;50.194;7.690;2023-05-14T13:34:49;2.70;;;1.70;;
18449;SDS011;9354;50.194;7.690;2023-05-14T13:37:16;2.13;;;1.60;;
18449;SDS011;9354;50.194;7.690;2023-05-14T13:39:43;2.97;;;1.73;;
18449;SDS011;9354;50.194;7.690;2023-05-14T13:42:11;2.27;;;2.07;;
18449;SDS011;9354;50.194;7.690;2023-05-14T13:44:38;5.83;;;2.23;;
18449;SDS011;9354;50.194;7.690;2023-05-14T13:47:06;4.60;;;2.03;;
18449;SDS011;9354;50.194;7.690;2023-05-14T13:49:33;3.37;;;2.20;;
18449;SDS011;9354;50.194;7.690;2023-05-14T13:52:02;2.60;;;2.17;;
18449;SDS011;9354;50.194;7.690;2023-05-14T13:54:30;2.90;;;2.20;;
18449;SDS011;9354;50.194;7.690;2023-05-14T13:56:57;3.23;;;2.10;;
18449;SDS011;9354;50.194;7.690;2023-05-14T13:59:24;4.17;;;2.43;;
18449;SDS011;9354;50.194;7.690;2023-05-14T14:01:52;3.40;;;1.97;;
18449;SDS011;9354;50.194;7.690;2023-05-14T14:04:19;4.27;;;1.90;;
18449;SDS011;9354;50.194;7.690;2023-05-14T14:06:47;2.33;;;1.67;;
18449;SDS011;9354;50.194;7.690;2023-05-14T14:09:16;1.90;;;1.67;;
18449;SDS011;9354;50.194;7.690;2023-05-14T14:11:43;3.10;;;1.60;;
18449;SDS011;9354;50.194;7.690;2023-05-14T14:14:11;3.03;;;1.80;;
18449;SDS011;9354;50.194;7.690;2023-05-14T14:16:38;2.50;;;1.80;;
18449;SDS011;9354;50.194;7.690;2023-05-14T14:19:06;2.57;;;1.63;;
18449;SDS011;9354;50.194;7.690;2023-05-14T14:21:33;2.20;;;1.60;;
18449;SDS011;9354;50.194;7.690;2023-05-14T14:24:01;3.77;;;1.97;;
18449;SDS011;9354;50.194;7.690;2023-05-14T14:26:30;4.17;;;1.77;;
18449;SDS011;9354;50.194;7.690;2023-05-14T14:28:57;3.40;;;1.80;;
18449;SDS011;9354;50.194;7.690;2023-05-14T14:31:25;2.10;;;1.40;;
18449;SDS011;9354;50.194;7.690;2023-05-14T14:33:52;2.63;;;1.20;;
18449;SDS011;9354;50.194;7.690;2023-05-14T14:36:20;2.20;;;1.13;;
18449;SDS011;9354;50.194;7.690;2023-05-14T14:38:47;2.40;;;1.33;;
18449;SDS011;9354;50.194;7.690;2023-05-14T14:41:14;1.53;;;1.10;;
18449;SDS011;9354;50.194;7.690;2023-05-14T14:43:43;1.03;;;1.00;;
18449;SDS011;9354;50.194;7.690;2023-05-14T14:46:11;3.80;;;0.93;;
18449;SDS011;9354;50.194;7.690;2023-05-14T14:48:38;1.00;;;0.90;;
18449;SDS011;9354;50.194;7.690;2023-05-14T14:51:06;1.43;;;0.90;;
18449;SDS011;9354;50.194;7.690;2023-05-14T14:53:34;1.53;;;1.03;;
18449;SDS011;9354;50.194;7.690;2023-05-14T14:56:02;2.67;;;1.10;;
18449;SDS011;9354;50.194;7.690;2023-05-14T14:58:30;1.47;;;1.00;;
18449;SDS011;9354;50.194;7.690;2023-05-14T15:00:59;1.67;;;1.10;;
18449;SDS011;9354;50.194;7.690;2023-05-14T15:03:26;1.90;;;1.20;;